createdAt,value
2022-08-22T00:01:07.584Z,19.32
2022-08-22T00:02:41.976Z,24.81
2022-08-22T00:02:56.360Z,20.34
2022-08-22T00:03:03.075Z,24.92
2022-08-22T00:03:15.676Z,19.52
2022-08-22T00:03:55.026Z,19.32
2022-08-22T00:06:42.165Z,19.27
2022-08-22T00:09:29.571Z,19.22
2022-08-22T00:12:18.259Z,19.18
2022-08-22T00:14:58.339Z,19.14
2022-08-22T00:17:49.426Z,19.09
2022-08-22T00:20:37.479Z,19.05
2022-08-22T00:23:32.079Z,19.01
2022-08-22T00:26:06.482Z,18.98
2022-08-22T00:28:47.040Z,18.95
2022-08-22T00:31:35.712Z,18.92
2022-08-22T00:34:18.249Z,18.88
2022-08-22T00:37:10.869Z,18.85
2022-08-22T00:39:46.117Z,18.82
2022-08-22T00:42:29.322Z,18.78
2022-08-22T00:45:16.848Z,18.76
2022-08-22T00:47:56.257Z,18.72
2022-08-22T00:50:42.968Z,18.70
2022-08-22T00:53:22.359Z,18.63
2022-08-22T00:56:26.461Z,18.59
2022-08-22T00:59:22.721Z,18.50
2022-08-22T01:02:34.918Z,18.45
2022-08-22T01:05:17.687Z,18.37
2022-08-22T01:07:57.322Z,18.32
2022-08-22T01:10:44.882Z,18.28
2022-08-22T01:13:36.815Z,18.25
2022-08-22T01:16:17.531Z,18.21
2022-08-22T01:19:31.993Z,18.19
2022-08-22T01:22:18.772Z,18.15
2022-08-22T01:28:17.213Z,18.09
2022-08-22T01:31:19.784Z,18.07
2022-08-22T01:34:13.043Z,18.05
2022-08-22T01:37:11.821Z,18.03
2022-08-22T01:40:02.680Z,17.99
2022-08-22T01:42:47.687Z,18.00
2022-08-22T01:45:14.036Z,17.98
2022-08-22T01:47:54.203Z,17.96
2022-08-22T01:50:27.061Z,17.94
2022-08-22T01:53:04.517Z,17.90
2022-08-22T01:56:05.584Z,17.87
2022-08-22T01:58:36.199Z,17.82
2022-08-22T02:01:17.667Z,17.78
2022-08-22T02:04:00.944Z,17.76
2022-08-22T02:06:49.185Z,17.71
2022-08-22T02:09:52.397Z,17.69
2022-08-22T02:12:25.617Z,17.66
2022-08-22T02:15:12.436Z,17.66
2022-08-22T02:18:02.323Z,17.64
2022-08-22T02:20:40.629Z,17.65
2022-08-22T02:23:32.481Z,17.63
2022-08-22T02:26:01.609Z,17.64
2022-08-22T02:28:41.087Z,17.68
2022-08-22T02:31:33.090Z,17.66
2022-08-22T02:34:03.261Z,17.68
2022-08-22T02:36:40.446Z,17.67
2022-08-22T02:39:45.786Z,17.64
2022-08-22T02:42:34.365Z,17.58
2022-08-22T02:45:21.411Z,17.56
2022-08-22T02:48:14.747Z,17.51
2022-08-22T02:51:01.535Z,17.47
2022-08-22T02:54:02.210Z,17.41
2022-08-22T02:56:37.207Z,17.34
2022-08-22T02:59:32.111Z,17.29
2022-08-22T03:02:37.044Z,17.24
2022-08-22T03:05:30.369Z,17.20
2022-08-22T03:08:05.169Z,17.17
2022-08-22T03:10:40.935Z,17.16
2022-08-22T03:13:12.004Z,17.12
2022-08-22T03:15:49.227Z,17.10
2022-08-22T03:18:22.716Z,17.07
2022-08-22T03:20:59.152Z,17.02
2022-08-22T03:23:28.404Z,16.97
2022-08-22T03:26:07.622Z,16.95
2022-08-22T03:29:00.503Z,16.90
2022-08-22T03:31:29.137Z,16.86
2022-08-22T03:34:31.164Z,16.82
2022-08-22T03:37:00.437Z,16.78
2022-08-22T03:39:48.703Z,16.73
2022-08-22T03:42:50.061Z,16.66
2022-08-22T03:45:25.955Z,16.61
2022-08-22T03:48:13.558Z,16.55
2022-08-22T03:50:55.178Z,16.51
2022-08-22T03:53:46.275Z,16.45
2022-08-22T03:56:26.181Z,16.41
2022-08-22T03:59:34.399Z,16.36
2022-08-22T04:02:42.338Z,16.33
2022-08-22T04:05:33.989Z,16.27
2022-08-22T04:08:26.749Z,16.25
2022-08-22T04:11:34.553Z,16.21
2022-08-22T04:14:15.830Z,16.17
2022-08-22T04:17:11.412Z,16.13
2022-08-22T04:19:46.793Z,16.12
2022-08-22T04:22:13.226Z,16.10
2022-08-22T04:24:55.129Z,16.10
2022-08-22T04:27:36.611Z,16.08
2022-08-22T04:30:18.439Z,16.13
2022-08-22T04:32:52.906Z,16.14
2022-08-22T04:35:31.289Z,16.12
2022-08-22T04:38:22.099Z,16.11
2022-08-22T04:40:54.274Z,16.10
2022-08-22T04:43:40.400Z,16.10
2022-08-22T04:46:23.677Z,16.06
2022-08-22T04:48:59.161Z,16.01
2022-08-22T04:51:41.500Z,15.98
2022-08-22T04:54:29.606Z,15.94
2022-08-22T04:57:09.309Z,15.93
2022-08-22T04:59:36.562Z,15.94
2022-08-22T05:02:08.602Z,15.94
2022-08-22T05:04:40.984Z,15.94
2022-08-22T05:07:15.098Z,15.93
2022-08-22T05:09:53.752Z,15.94
2022-08-22T05:12:27.078Z,15.92
2022-08-22T05:15:23.137Z,15.91
2022-08-22T05:17:53.254Z,15.87
2022-08-22T05:20:23.489Z,15.86
2022-08-22T05:23:00.084Z,15.86
2022-08-22T05:25:30.915Z,15.83
2022-08-22T05:28:12.152Z,15.83
2022-08-22T05:30:39.971Z,15.78
2022-08-22T05:33:16.427Z,15.80
2022-08-22T05:35:59.867Z,15.80
2022-08-22T05:38:35.143Z,15.78
2022-08-22T05:41:08.618Z,15.80
2022-08-22T05:43:40.613Z,15.81
2022-08-22T05:46:15.965Z,15.83
2022-08-22T05:48:59.854Z,15.85
2022-08-22T05:51:36.434Z,15.85
2022-08-22T05:54:22.849Z,15.89
2022-08-22T05:57:26.311Z,15.92
2022-08-22T06:00:01.177Z,15.96
2022-08-22T06:03:01.365Z,16.01
2022-08-22T06:05:32.857Z,16.06
2022-08-22T06:08:14.248Z,16.15
2022-08-22T06:10:48.274Z,16.22
2022-08-22T06:13:34.877Z,16.30
2022-08-22T06:16:25.992Z,16.38
2022-08-22T06:18:53.250Z,16.49
2022-08-22T06:21:33.726Z,16.63
2022-08-22T06:24:09.657Z,16.75
2022-08-22T06:26:39.972Z,16.87
2022-08-22T06:29:08.523Z,16.99
2022-08-22T06:31:48.096Z,17.10
2022-08-22T06:34:18.066Z,17.21
2022-08-22T06:36:48.470Z,17.30
2022-08-22T06:39:18.448Z,17.41
2022-08-22T06:41:55.062Z,17.52
2022-08-22T06:44:26.919Z,17.63
2022-08-22T06:46:57.867Z,17.74
2022-08-22T06:49:26.708Z,17.87
2022-08-22T06:51:59.865Z,18.00
2022-08-22T06:54:34.286Z,18.12
2022-08-22T06:57:03.297Z,18.21
2022-08-22T06:59:33.669Z,18.29
2022-08-22T07:02:16.457Z,18.41
2022-08-22T07:04:43.547Z,18.51
2022-08-22T07:07:10.028Z,18.60
2022-08-22T07:09:40.333Z,18.70
2022-08-22T07:12:19.974Z,18.77
2022-08-22T07:14:52.007Z,18.86
2022-08-22T07:17:22.738Z,18.96
2022-08-22T07:20:08.302Z,19.05
2022-08-22T07:22:37.435Z,19.15
2022-08-22T07:25:12.708Z,19.26
2022-08-22T07:27:48.852Z,19.36
2022-08-22T07:30:28.084Z,19.44
2022-08-22T07:33:25.678Z,19.55
2022-08-22T07:35:53.581Z,19.62
2022-08-22T07:38:43.025Z,19.70
2022-08-22T07:41:20.788Z,19.80
2022-08-22T07:44:19.248Z,19.86
2022-08-22T07:47:11.448Z,19.97
2022-08-22T07:49:57.562Z,20.05
2022-08-22T07:52:25.056Z,20.14
2022-08-22T07:55:20.665Z,20.22
2022-08-22T07:57:55.489Z,20.31
2022-08-22T08:00:23.684Z,20.38
2022-08-22T08:02:54.271Z,20.50
2022-08-22T08:05:24.001Z,20.58
2022-08-22T08:07:53.889Z,20.68
2022-08-22T08:10:28.458Z,20.79
2022-08-22T08:13:02.334Z,20.92
2022-08-22T08:15:32.197Z,21.09
2022-08-22T08:18:03.783Z,21.25
2022-08-22T08:20:32.472Z,21.45
2022-08-22T08:22:59.521Z,21.65
2022-08-22T08:25:29.305Z,21.88
2022-08-22T08:28:17.139Z,22.06
2022-08-22T08:30:55.307Z,22.24
2022-08-22T08:33:26.924Z,22.40
2022-08-22T08:36:19.520Z,22.52
2022-08-22T08:39:14.129Z,22.63
2022-08-22T08:42:03.385Z,22.70
2022-08-22T08:44:38.840Z,22.79
2022-08-22T08:47:42.808Z,22.89
2022-08-22T08:50:24.046Z,23.00
2022-08-22T08:52:53.179Z,23.09
2022-08-22T08:55:30.815Z,23.21
2022-08-22T08:58:07.020Z,23.29
2022-08-22T09:00:51.141Z,23.36
2022-08-22T09:03:59.238Z,23.41
2022-08-22T09:09:35.150Z,23.70
2022-08-22T09:12:13.563Z,23.87
2022-08-22T09:15:11.810Z,24.01
2022-08-22T09:18:04.657Z,24.16
2022-08-22T09:20:49.290Z,24.28
2022-08-22T09:23:53.902Z,24.46
2022-08-22T09:26:52.098Z,24.63
2022-08-22T09:29:55.192Z,24.61
2022-08-22T09:32:42.276Z,24.82
2022-08-22T09:35:27.380Z,24.90
2022-08-22T09:37:53.827Z,24.97
2022-08-22T09:40:15.327Z,23.55
2022-08-22T09:40:52.279Z,25.14
2022-08-22T09:43:24.700Z,25.40
2022-08-22T09:46:06.065Z,25.66
2022-08-22T09:49:07.776Z,25.79
2022-08-22T09:52:15.145Z,25.93
2022-08-22T09:55:41.032Z,26.09
2022-08-22T09:58:41.763Z,26.44
2022-08-22T10:01:33.309Z,26.55
2022-08-22T10:04:26.103Z,26.78
2022-08-22T10:07:12.174Z,26.87
2022-08-22T10:09:58.824Z,27.01
2022-08-22T10:12:36.570Z,27.13
2022-08-22T10:15:41.195Z,27.28
2022-08-22T10:18:22.540Z,27.37
2022-08-22T10:21:09.491Z,27.57
2022-08-22T10:23:45.836Z,27.73
2022-08-22T10:26:44.428Z,27.61
2022-08-22T10:29:25.934Z,27.52
2022-08-22T10:32:27.016Z,27.69
2022-08-22T10:34:59.597Z,27.93
2022-08-22T10:37:53.356Z,28.13
2022-08-22T10:40:29.147Z,28.16
2022-08-22T10:43:07.945Z,28.24
2022-08-22T10:45:39.714Z,28.38
2022-08-22T10:48:30.650Z,28.69
2022-08-22T10:51:43.136Z,28.92
2022-08-22T10:54:37.347Z,29.19
2022-08-22T10:57:26.802Z,29.51
2022-08-22T11:00:22.726Z,29.71
2022-08-22T11:03:02.433Z,29.85
2022-08-22T11:05:35.451Z,29.70
2022-08-22T11:08:34.619Z,29.95
2022-08-22T11:11:19.043Z,30.17
2022-08-22T11:14:19.267Z,30.41
2022-08-22T11:16:56.383Z,30.53
2022-08-22T11:19:34.018Z,30.56
2022-08-22T11:22:25.353Z,30.78
2022-08-22T11:25:35.844Z,30.77
2022-08-22T11:28:05.381Z,31.18
2022-08-22T11:30:44.914Z,31.46
2022-08-22T11:33:33.813Z,31.56
2022-08-22T11:36:42.232Z,31.83
2022-08-22T11:39:30.669Z,32.04
2022-08-22T11:42:06.697Z,32.28
2022-08-22T11:44:50.197Z,32.16
2022-08-22T11:47:24.802Z,32.25
2022-08-22T11:50:13.429Z,32.11
2022-08-22T11:52:55.546Z,32.56
2022-08-22T11:55:29.617Z,32.57
2022-08-22T11:58:06.737Z,32.77
2022-08-22T12:00:55.280Z,32.93
2022-08-22T12:03:36.570Z,33.18
2022-08-22T12:06:39.327Z,33.38
2022-08-22T12:09:27.776Z,33.14
2022-08-22T12:12:33.991Z,32.82
2022-08-22T12:15:08.940Z,32.76
2022-08-22T12:18:00.943Z,32.88
2022-08-22T12:21:00.441Z,32.95
2022-08-22T12:23:48.769Z,33.24
2022-08-22T12:26:55.691Z,33.56
2022-08-22T12:29:57.651Z,33.98
2022-08-22T12:32:39.854Z,33.87
2022-08-22T12:35:16.643Z,33.63
2022-08-22T12:38:28.453Z,33.67
2022-08-22T12:41:12.187Z,33.79
2022-08-22T12:44:06.232Z,33.92
2022-08-22T12:46:52.124Z,33.39
2022-08-22T12:49:36.885Z,33.30
2022-08-22T12:52:25.064Z,33.12
2022-08-22T12:55:08.950Z,33.01
2022-08-22T12:57:56.584Z,33.20
2022-08-22T13:00:40.287Z,33.19
2022-08-22T13:03:13.027Z,32.77
2022-08-22T13:05:56.287Z,32.67
2022-08-22T13:08:33.369Z,32.65
2022-08-22T13:11:22.833Z,32.47
2022-08-22T13:13:57.318Z,32.18
2022-08-22T13:16:26.185Z,32.14
2022-08-22T13:19:00.344Z,32.15
2022-08-22T13:21:39.940Z,32.38
2022-08-22T13:24:12.397Z,32.72
2022-08-22T13:26:58.295Z,32.51
2022-08-22T13:29:39.552Z,32.37
2022-08-22T13:32:18.910Z,32.27
2022-08-22T13:34:55.010Z,31.83
2022-08-22T13:37:29.014Z,31.69
2022-08-22T13:40:03.740Z,31.76
2022-08-22T13:42:40.073Z,31.63
2022-08-22T13:45:14.070Z,31.64
2022-08-22T13:47:49.261Z,31.74
2022-08-22T13:50:23.070Z,31.47
2022-08-22T13:53:05.734Z,31.47
2022-08-22T13:55:43.989Z,31.28
2022-08-22T13:58:31.536Z,31.23
2022-08-22T14:01:25.567Z,31.18
2022-08-22T14:03:54.834Z,31.13
2022-08-22T14:06:36.950Z,31.11
2022-08-22T14:09:32.395Z,31.11
2022-08-22T14:12:22.818Z,31.04
2022-08-22T14:14:56.825Z,31.02
2022-08-22T14:17:32.617Z,31.07
2022-08-22T14:20:11.198Z,31.08
2022-08-22T14:22:40.915Z,31.14
2022-08-22T14:25:17.045Z,31.16
2022-08-22T14:27:58.077Z,31.20
2022-08-22T14:30:29.850Z,31.26
2022-08-22T14:33:13.206Z,31.29
2022-08-22T14:35:54.805Z,31.28
2022-08-22T14:38:40.614Z,31.52
2022-08-22T14:41:23.444Z,31.62
2022-08-22T14:44:00.415Z,31.63
2022-08-22T14:46:53.325Z,31.69
2022-08-22T14:49:28.635Z,31.48
2022-08-22T14:52:43.318Z,31.39
2022-08-22T14:55:20.491Z,31.45
2022-08-22T14:58:00.588Z,31.48
2022-08-22T15:00:39.736Z,31.52
2022-08-22T15:03:15.972Z,31.52
2022-08-22T15:05:59.286Z,31.44
2022-08-22T15:08:34.051Z,31.47
2022-08-22T15:11:22.310Z,31.50
2022-08-22T15:14:13.690Z,31.53
2022-08-22T15:16:44.942Z,31.60
2022-08-22T15:19:27.348Z,31.66
2022-08-22T15:22:11.226Z,31.71
2022-08-22T15:24:57.476Z,31.69
2022-08-22T15:27:26.525Z,31.72
2022-08-22T15:29:57.640Z,31.75
2022-08-22T15:32:28.275Z,31.81
2022-08-22T15:35:08.561Z,31.85
2022-08-22T15:38:01.568Z,31.89
2022-08-22T15:40:42.264Z,31.92
2022-08-22T15:43:23.615Z,31.94
2022-08-22T15:46:07.081Z,31.92
2022-08-22T15:48:39.046Z,31.91
2022-08-22T15:51:10.253Z,31.84
2022-08-22T15:54:00.687Z,31.81
2022-08-22T15:56:30.606Z,31.76
2022-08-22T15:59:21.317Z,31.65
2022-08-22T16:01:55.133Z,31.65
2022-08-22T16:04:35.519Z,31.57
2022-08-22T16:07:19.033Z,31.52
2022-08-22T16:09:50.466Z,31.45
2022-08-22T16:12:45.764Z,31.36
2022-08-22T16:15:56.379Z,31.25
2022-08-22T16:18:42.642Z,31.16
2022-08-22T16:21:14.228Z,31.08
2022-08-22T16:23:49.928Z,31.00
2022-08-22T16:26:16.532Z,30.93
2022-08-22T16:28:59.139Z,30.87
2022-08-22T16:31:33.731Z,30.78
2022-08-22T16:34:26.073Z,30.68
2022-08-22T16:37:27.544Z,30.61
2022-08-22T16:40:01.574Z,30.54
2022-08-22T16:43:08.336Z,30.48
2022-08-22T16:45:53.221Z,30.38
2022-08-22T16:48:33.350Z,30.31
2022-08-22T16:51:18.708Z,30.23
2022-08-22T16:54:40.477Z,30.12
2022-08-22T16:57:30.465Z,30.03
2022-08-22T17:00:25.749Z,29.98
2022-08-22T17:02:58.223Z,29.91
2022-08-22T17:05:46.406Z,29.85
2022-08-22T17:08:19.589Z,29.81
2022-08-22T17:11:01.573Z,29.75
2022-08-22T17:13:33.849Z,29.67
2022-08-22T17:16:23.741Z,29.60
2022-08-22T17:19:12.922Z,29.51
2022-08-22T17:21:51.669Z,29.42
2022-08-22T17:24:31.824Z,29.29
2022-08-22T17:27:27.183Z,29.18
2022-08-22T17:30:02.616Z,29.04
2022-08-22T17:32:59.851Z,28.95
2022-08-22T17:35:44.235Z,28.87
2022-08-22T17:38:51.837Z,28.80
2022-08-22T17:41:46.011Z,28.71
2022-08-22T17:44:17.333Z,28.64
2022-08-22T17:46:55.327Z,28.58
2022-08-22T17:49:51.019Z,28.46
2022-08-22T17:52:35.764Z,28.40
2022-08-22T17:55:12.908Z,28.36
2022-08-22T17:57:57.515Z,28.33
2022-08-22T18:00:24.247Z,28.27
2022-08-22T18:03:02.265Z,28.25
2022-08-22T18:05:36.488Z,28.17
2022-08-22T18:11:16.463Z,28.05
2022-08-22T18:14:05.275Z,27.97
2022-08-22T18:16:45.889Z,27.89
2022-08-22T18:19:36.822Z,27.81
2022-08-22T18:22:12.767Z,27.74
2022-08-22T18:24:47.889Z,27.66
2022-08-22T18:27:34.762Z,27.59
2022-08-22T18:30:11.030Z,27.52
2022-08-22T18:32:46.794Z,27.48
2022-08-22T18:35:22.454Z,27.41
2022-08-22T18:38:19.249Z,27.31
2022-08-22T18:40:53.620Z,27.24
2022-08-22T18:43:36.093Z,27.16
2022-08-22T18:46:24.745Z,27.06
2022-08-22T18:49:14.180Z,26.98
2022-08-22T18:51:38.850Z,26.90
2022-08-22T18:54:05.286Z,26.85
2022-08-22T18:56:33.059Z,26.82
2022-08-22T18:59:30.866Z,26.77
2022-08-22T19:02:18.709Z,26.66
2022-08-22T19:05:11.949Z,26.56
2022-08-22T19:07:55.292Z,26.48
2022-08-22T19:10:58.876Z,26.40
2022-08-22T19:13:46.454Z,26.31
2022-08-22T19:16:37.830Z,26.24
2022-08-22T19:19:50.458Z,26.15
2022-08-22T19:22:19.854Z,26.04
2022-08-22T19:25:27.725Z,25.99
2022-08-22T19:28:06.305Z,25.92
2022-08-22T19:31:21.621Z,25.87
2022-08-22T19:34:13.693Z,25.83
2022-08-22T19:36:40.565Z,25.78
2022-08-22T19:39:09.722Z,25.76
2022-08-22T19:41:58.017Z,25.72
2022-08-22T19:44:27.357Z,25.68
2022-08-22T19:47:29.289Z,25.64
2022-08-22T19:50:16.849Z,25.55
2022-08-22T19:53:03.190Z,25.49
2022-08-22T19:55:38.874Z,25.45
2022-08-22T19:58:10.177Z,25.39
2022-08-22T20:00:54.269Z,25.34
2022-08-22T20:03:40.574Z,25.28
2022-08-22T20:06:44.095Z,25.21
2022-08-22T20:09:23.342Z,25.12
2022-08-22T20:12:13.274Z,25.06
2022-08-22T20:14:44.566Z,25.01
2022-08-22T20:17:25.937Z,24.98
2022-08-22T20:23:00.533Z,24.87
2022-08-22T20:25:42.500Z,24.80
2022-08-22T20:28:29.827Z,24.72
2022-08-22T20:31:07.548Z,24.63
2022-08-22T20:33:37.815Z,24.58
2022-08-22T20:36:18.578Z,24.55
2022-08-22T20:38:58.979Z,24.47
2022-08-22T20:41:40.517Z,24.40
2022-08-22T20:44:12.454Z,24.33
2022-08-22T20:46:55.067Z,24.25
2022-08-22T20:49:29.409Z,24.16
2022-08-22T20:51:59.462Z,24.07
2022-08-22T20:54:30.935Z,24.00
2022-08-22T20:57:16.901Z,23.91
2022-08-22T20:59:52.787Z,23.83
2022-08-22T21:02:24.368Z,23.73
2022-08-22T21:04:57.129Z,23.66
2022-08-22T21:07:32.978Z,23.60
2022-08-22T21:10:39.815Z,23.51
2022-08-22T21:13:28.269Z,23.43
2022-08-22T21:15:59.933Z,23.36
2022-08-22T21:18:33.877Z,23.33
2022-08-22T21:21:18.032Z,23.28
2022-08-22T21:23:47.296Z,23.23
2022-08-22T21:26:19.694Z,23.18
2022-08-22T21:28:49.174Z,23.13
2022-08-22T21:31:21.322Z,23.09
2022-08-22T21:33:50.436Z,23.02
2022-08-22T21:36:20.522Z,22.98
2022-08-22T21:38:52.568Z,22.92
2022-08-22T21:42:07.733Z,22.85
2022-08-22T21:44:37.043Z,22.77
2022-08-22T21:47:30.902Z,22.71
2022-08-22T21:50:13.109Z,22.65
2022-08-22T21:53:00.148Z,22.60
2022-08-22T21:55:30.492Z,22.54
2022-08-22T21:58:06.486Z,22.51
2022-08-22T22:00:48.569Z,22.47
2022-08-22T22:03:17.753Z,22.43
2022-08-22T22:05:44.676Z,22.37
2022-08-22T22:08:11.881Z,22.32
2022-08-22T22:10:40.679Z,22.27
2022-08-22T22:13:08.266Z,22.23
2022-08-22T22:15:40.267Z,22.18
2022-08-22T22:18:06.910Z,22.13
2022-08-22T22:20:34.044Z,22.06
2022-08-22T22:23:00.601Z,22.01
2022-08-22T22:25:40.759Z,21.97
2022-08-22T22:28:30.899Z,21.92
2022-08-22T22:30:57.415Z,21.84
2022-08-22T22:33:29.929Z,21.83
2022-08-22T22:35:59.904Z,21.80
2022-08-22T22:38:26.369Z,21.78
2022-08-22T22:40:52.899Z,21.74
2022-08-22T22:43:19.651Z,21.73
2022-08-22T22:45:46.276Z,21.69
2022-08-22T22:48:17.411Z,21.65
2022-08-22T22:50:50.883Z,21.61
2022-08-22T22:53:19.514Z,21.55
2022-08-22T22:55:48.066Z,21.50
2022-08-22T22:58:27.369Z,21.43
2022-08-22T23:00:53.829Z,21.38
2022-08-22T23:03:21.428Z,21.37
2022-08-22T23:05:47.936Z,21.33
2022-08-22T23:08:14.341Z,21.30
2022-08-22T23:10:40.782Z,21.28
2022-08-22T23:13:07.269Z,21.21
2022-08-22T23:15:33.671Z,21.16
2022-08-22T23:18:00.414Z,21.12
2022-08-22T23:20:26.944Z,21.08
2022-08-22T23:22:53.424Z,21.07
2022-08-22T23:25:19.953Z,21.06
2022-08-22T23:27:58.990Z,21.04
2022-08-22T23:30:25.625Z,21.01
2022-08-22T23:32:52.057Z,20.98
2022-08-22T23:35:18.463Z,20.98
2022-08-22T23:37:44.966Z,20.96
2022-08-22T23:40:11.677Z,20.95
2022-08-22T23:42:38.197Z,20.92
2022-08-22T23:45:05.117Z,20.92
2022-08-22T23:49:57.948Z,20.85
2022-08-22T23:52:25.368Z,20.83
2022-08-22T23:54:54.509Z,20.79
2022-08-22T23:57:26.358Z,20.73
2022-08-22T23:59:57.826Z,20.69
